Time;durP1;ratioP1;P1;durP2;ratioP2;P2;SDS_P1;SDS_P2;PMS_P1;PMS_P2;Temp;Humidity;BMP_temperature;BMP_pressure;BME280_temperature;BME280_humidity;BME280_pressure;Samples;Min_cycle;Max_cycle;Signal;HPM_P1;HPM_P2
2022/11/29 00:00:10;;;;;;;;;;;6.80;99.90;;;;;;5055243;28;20388;-75
2022/11/29 00:02:35;;;;;;;;;;;6.90;99.90;;;;;;5073136;28;20376;-76
2022/11/29 00:05:01;;;;;;;;;;;6.90;99.90;;;;;;5071937;28;19913;-75
2022/11/29 00:07:26;;;;;;;;;;;6.80;99.90;;;;;;5073558;28;20372;-76
2022/11/29 00:09:52;;;;;;;;;;;6.90;99.90;;;;;;5073326;28;19915;-75
2022/11/29 00:12:17;;;;;;;;;;;6.90;99.90;;;;;;5072823;28;19913;-75
2022/11/29 00:14:43;;;;;;;;;;;7.00;99.90;;;;;;5073654;28;20010;-75
2022/11/29 00:17:08;;;;;;;;;;;7.10;99.90;;;;;;5073495;28;19932;-75
2022/11/29 00:19:35;;;;;;;;;;;7.00;99.90;;;;;;5073264;28;19909;-75
2022/11/29 00:22:00;;;;;;;;;;;7.00;99.90;;;;;;5072897;28;19915;-76
2022/11/29 00:24:26;;;;;;;;;;;7.00;99.90;;;;;;5073312;28;19991;-75
2022/11/29 00:26:52;;;;;;;;;;;7.10;99.90;;;;;;5073443;28;19917;-76
2022/11/29 00:29:17;;;;;;;;;;;7.00;99.90;;;;;;5072841;28;20349;-75
2022/11/29 00:31:43;;;;;;;;;;;7.00;99.90;;;;;;5055575;28;19913;-75
2022/11/29 00:34:10;;;;;;;;;;;7.10;99.90;;;;;;5072688;28;19951;-76
2022/11/29 00:36:36;;;;;;;;;;;7.10;99.90;;;;;;5073399;28;19908;-75
2022/11/29 00:39:03;;;;;;;;;;;7.10;99.90;;;;;;5054854;28;19920;-75
2022/11/29 00:41:28;;;;;;;;;;;7.10;99.90;;;;;;5073615;28;19944;-76
2022/11/29 00:43:54;;;;;;;;;;;7.10;99.90;;;;;;5055370;28;19985;-76
2022/11/29 00:46:20;;;;;;;;;;;7.20;99.90;;;;;;5072762;28;19928;-76
2022/11/29 00:48:45;;;;;;;;;;;7.10;99.90;;;;;;5073097;28;19919;-75
2022/11/29 00:51:11;;;;;;;;;;;7.20;99.90;;;;;;5072010;28;20427;-75
2022/11/29 00:53:37;;;;;;;;;;;7.10;99.90;;;;;;5072652;28;19915;-76
2022/11/29 00:56:03;;;;;;;;;;;7.10;99.90;;;;;;5072367;28;19913;-75
2022/11/29 00:58:29;;;;;;;;;;;7.20;99.90;;;;;;5073147;28;20404;-76
2022/11/29 01:00:55;;;;;;;;;;;7.20;99.90;;;;;;5072917;28;19992;-76
2022/11/29 01:03:20;;;;;;;;;;;7.20;99.90;;;;;;5072523;28;20753;-76
2022/11/29 01:05:47;;;;;;;;;;;7.10;99.90;;;;;;5072678;28;20019;-76
2022/11/29 01:08:13;;;;;;;;;;;7.20;99.90;;;;;;5072034;28;20421;-76
2022/11/29 01:10:39;;;;;;;;;;;7.20;99.90;;;;;;5072827;28;19962;-76
2022/11/29 01:13:04;;;;;;;;;;;7.10;99.90;;;;;;5072086;28;20312;-76
2022/11/29 01:15:30;;;;;;;;;;;7.10;99.90;;;;;;5072947;28;19908;-76
2022/11/29 01:17:55;;;;;;;;;;;7.10;99.90;;;;;;5072718;28;19908;-76
2022/11/29 01:20:21;;;;;;;;;;;7.00;99.90;;;;;;5072212;28;19912;-76
2022/11/29 01:22:47;;;;;;;;;;;7.00;99.90;;;;;;5072888;28;20027;-76
2022/11/29 01:25:13;;;;;;;;;;;6.90;99.90;;;;;;5071933;28;19954;-76
2022/11/29 01:27:39;;;;;;;;;;;6.90;99.90;;;;;;5072471;28;19909;-76
2022/11/29 01:30:06;;;;;;;;;;;6.80;99.90;;;;;;5071886;28;19908;-76
2022/11/29 01:32:32;;;;;;;;;;;6.90;99.90;;;;;;5072426;28;20369;-76
2022/11/29 01:34:57;;;;;;;;;;;6.80;99.90;;;;;;5072938;28;19915;-76
2022/11/29 01:37:23;;;;;;;;;;;6.80;99.90;;;;;;5072385;28;19912;-76
2022/11/29 01:39:49;;;;;;;;;;;6.80;99.90;;;;;;5072270;28;19908;-75
2022/11/29 01:42:14;;;;;;;;;;;6.90;99.90;;;;;;5072001;28;20265;-76
2022/11/29 01:44:43;;;;;;;;;;;6.90;99.90;;;;;;5072564;28;19909;-75
2022/11/29 01:47:09;;;;;;;;;;;6.90;99.90;;;;;;5071861;28;19970;-75
2022/11/29 01:49:36;;;;;;;;;;;6.90;99.90;;;;;;5072457;28;20342;-75
2022/11/29 01:52:28;;;;;;;;;;;6.90;99.90;;;;;;5072211;28;19934;-75
2022/11/29 01:54:59;;;;;;;;;;;7.00;99.90;;;;;;5051038;28;20285;-76
2022/11/29 01:57:25;;;;;;;;;;;7.00;99.90;;;;;;5071698;28;20017;-76
2022/11/29 01:59:53;;;;;;;;;;;7.00;99.90;;;;;;5072530;28;19909;-76
2022/11/29 02:02:20;;;;;;;;;;;7.00;99.90;;;;;;5071837;28;19908;-76
2022/11/29 02:04:47;;;;;;;;;;;7.00;99.90;;;;;;5073778;28;19913;-76
2022/11/29 02:07:12;;;;;;;;;;;7.00;99.90;;;;;;5075443;28;19917;-75
2022/11/29 02:09:38;;;;;;;;;;;7.00;99.90;;;;;;5076266;28;19961;-75
2022/11/29 02:12:13;;;;;;;;;;;6.90;99.90;;;;;;5075775;28;20369;-75
2022/11/29 02:14:48;;;;;;;;;;;6.90;99.90;;;;;;5076080;28;19909;-76
2022/11/29 02:17:22;;;;;;;;;;;6.80;99.90;;;;;;5075466;28;20003;-75
2022/11/29 02:19:54;;;;;;;;;;;6.80;99.90;;;;;;5075899;28;19920;-75
2022/11/29 02:22:23;;;;;;;;;;;6.80;99.90;;;;;;5075348;28;19908;-75
2022/11/29 02:25:04;;;;;;;;;;;6.70;99.90;;;;;;5075802;28;19915;-75
2022/11/29 02:27:29;;;;;;;;;;;6.80;99.90;;;;;;5075461;28;19916;-76
2022/11/29 02:30:07;;;;;;;;;;;6.80;99.90;;;;;;5075864;28;20399;-75
2022/11/29 02:32:33;;;;;;;;;;;6.70;99.90;;;;;;5075447;28;20420;-76
2022/11/29 02:35:17;;;;;;;;;;;6.60;99.90;;;;;;5076071;28;19914;-76
2022/11/29 02:38:01;;;;;;;;;;;6.60;99.90;;;;;;5075679;28;19912;-75
2022/11/29 02:40:29;;;;;;;;;;;6.60;99.90;;;;;;5074978;28;20094;-75
2022/11/29 02:43:04;;;;;;;;;;;6.60;99.90;;;;;;5075609;28;19909;-75
2022/11/29 02:45:32;;;;;;;;;;;6.50;99.90;;;;;;5075200;28;19917;-75
2022/11/29 02:47:58;;;;;;;;;;;6.50;99.90;;;;;;5075632;28;19909;-75
2022/11/29 02:50:43;;;;;;;;;;;6.50;99.90;;;;;;5074490;28;20254;-75
2022/11/29 02:53:12;;;;;;;;;;;6.50;99.90;;;;;;5074161;28;20342;-75
2022/11/29 02:55:45;;;;;;;;;;;6.40;99.90;;;;;;5075396;28;19931;-75
2022/11/29 02:58:19;;;;;;;;;;;6.40;99.90;;;;;;5074205;28;19947;-75
2022/11/29 03:00:49;;;;;;;;;;;6.40;99.90;;;;;;5075597;28;19954;-76
2022/11/29 03:03:20;;;;;;;;;;;6.40;99.90;;;;;;5074367;28;20277;-75
2022/11/29 03:06:04;;;;;;;;;;;6.30;99.90;;;;;;5074733;28;19924;-76
2022/11/29 03:08:34;;;;;;;;;;;6.30;99.90;;;;;;5074151;28;19909;-76
2022/11/29 03:11:05;;;;;;;;;;;6.40;99.90;;;;;;5075125;28;19909;-76
2022/11/29 03:13:50;;;;;;;;;;;6.30;99.90;;;;;;5074463;28;19912;-76
2022/11/29 03:16:15;;;;;;;;;;;6.30;99.90;;;;;;5074015;28;20003;-76
2022/11/29 03:19:04;;;;;;;;;;;6.30;99.90;;;;;;5075249;28;20328;-76
2022/11/29 03:21:30;;;;;;;;;;;6.30;99.90;;;;;;5062879;28;20431;-76
2022/11/29 03:23:58;;;;;;;;;;;6.20;99.90;;;;;;5074659;28;19909;-76
2022/11/29 03:26:28;;;;;;;;;;;6.10;99.90;;;;;;5073988;28;19917;-76
2022/11/29 03:29:00;;;;;;;;;;;6.10;99.90;;;;;;5075217;28;19908;-75
2022/11/29 03:31:32;;;;;;;;;;;6.10;99.90;;;;;;5074219;28;19909;-75
2022/11/29 03:33:58;;;;;;;;;;;6.10;99.90;;;;;;5056612;28;19912;-76
2022/11/29 03:36:43;;;;;;;;;;;6.00;99.90;;;;;;5073922;28;20456;-75
2022/11/29 03:39:16;;;;;;;;;;;6.00;99.90;;;;;;5058272;28;19912;-75
2022/11/29 03:41:44;;;;;;;;;;;6.00;99.90;;;;;;5054360;28;19909;-76
2022/11/29 03:44:16;;;;;;;;;;;5.90;99.90;;;;;;5054279;28;19943;-75
2022/11/29 03:46:51;;;;;;;;;;;5.90;99.90;;;;;;5054536;28;19920;-75
2022/11/29 03:49:21;;;;;;;;;;;5.90;99.90;;;;;;5053824;28;19909;-76
2022/11/29 03:51:59;;;;;;;;;;;6.00;99.90;;;;;;5053871;28;19908;-75
2022/11/29 03:54:27;;;;;;;;;;;6.00;99.90;;;;;;5053619;28;20301;-75
2022/11/29 03:56:53;;;;;;;;;;;6.10;99.90;;;;;;5054169;28;19939;-75
2022/11/29 03:59:30;;;;;;;;;;;6.10;99.90;;;;;;5053608;28;20358;-75
2022/11/29 04:02:06;;;;;;;;;;;6.10;99.90;;;;;;5054048;28;19913;-75
2022/11/29 04:04:50;;;;;;;;;;;6.20;99.90;;;;;;5053325;28;20007;-75
2022/11/29 04:07:39;;;;;;;;;;;6.30;99.90;;;;;;5053008;28;20362;-75
2022/11/29 04:10:23;;;;;;;;;;;6.20;99.90;;;;;;5015984;28;19908;-75
2022/11/29 04:13:02;;;;;;;;;;;6.30;99.90;;;;;;5053615;28;19935;-76
2022/11/29 04:15:40;;;;;;;;;;;6.40;99.90;;;;;;5053022;28;20336;-76
2022/11/29 04:18:05;;;;;;;;;;;6.40;99.90;;;;;;5053681;28;19972;-75
2022/11/29 04:20:37;;;;;;;;;;;6.40;99.90;;;;;;5052971;28;20674;-76
2022/11/29 04:23:05;;;;;;;;;;;6.40;99.90;;;;;;5053532;28;19909;-75
2022/11/29 04:25:43;;;;;;;;;;;6.40;99.90;;;;;;5052718;28;19925;-75
2022/11/29 04:28:38;;;;;;;;;;;6.50;99.90;;;;;;5052659;28;19940;-75
2022/11/29 04:31:03;;;;;;;;;;;6.50;99.90;;;;;;5036126;28;19909;-75
2022/11/29 04:33:47;;;;;;;;;;;6.50;99.90;;;;;;5052948;28;20382;-75
2022/11/29 04:36:25;;;;;;;;;;;6.50;99.90;;;;;;5052919;28;19909;-74
2022/11/29 04:39:09;;;;;;;;;;;6.60;99.90;;;;;;5053310;28;19955;-75
2022/11/29 04:42:10;;;;;;;;;;;6.60;99.90;;;;;;5052804;28;19905;-75
2022/11/29 04:45:08;;;;;;;;;;;6.60;99.90;;;;;;4971565;28;19913;-74
2022/11/29 04:47:48;;;;;;;;;;;6.60;99.90;;;;;;5018458;28;19928;-74
2022/11/29 04:50:25;;;;;;;;;;;6.60;99.90;;;;;;5053118;28;19948;-74
2022/11/29 04:53:00;;;;;;;;;;;6.60;99.90;;;;;;5052966;28;20025;-74
2022/11/29 04:55:44;;;;;;;;;;;6.60;99.90;;;;;;5052293;28;19916;-74
2022/11/29 04:58:36;;;;;;;;;;;6.70;99.90;;;;;;5053157;28;19952;-74
2022/11/29 05:01:14;;;;;;;;;;;6.70;99.90;;;;;;5048809;28;19912;-77
2022/11/29 05:03:48;;;;;;;;;;;6.70;99.90;;;;;;5052412;28;19978;-77
2022/11/29 05:06:19;;;;;;;;;;;6.70;99.90;;;;;;5047497;28;19920;-77
2022/11/29 05:09:04;;;;;;;;;;;6.80;99.90;;;;;;5072959;28;19908;-77
2022/11/29 05:11:42;;;;;;;;;;;6.80;99.90;;;;;;5072488;28;19951;-77
2022/11/29 05:14:33;;;;;;;;;;;6.80;99.90;;;;;;5072915;28;19947;-77
2022/11/29 05:17:22;;;;;;;;;;;6.80;99.90;;;;;;5073075;28;19909;-77
2022/11/29 05:19:48;;;;;;;;;;;6.80;99.90;;;;;;5072508;28;20003;-77
2022/11/29 05:22:20;;;;;;;;;;;6.80;99.90;;;;;;5054847;28;19994;-77
2022/11/29 05:24:45;;;;;;;;;;;6.70;99.90;;;;;;5072728;28;19914;-74
2022/11/29 05:27:22;;;;;;;;;;;6.80;99.90;;;;;;5072825;28;20358;-77
2022/11/29 05:29:53;;;;;;;;;;;6.80;99.90;;;;;;5072656;28;19916;-77
2022/11/29 05:32:27;;;;;;;;;;;6.70;99.90;;;;;;5072799;28;19970;-77
2022/11/29 05:34:56;;;;;;;;;;;6.70;99.90;;;;;;5073029;28;19909;-77
2022/11/29 05:37:37;;;;;;;;;;;6.60;99.90;;;;;;5072044;28;19913;-77
2022/11/29 05:40:12;;;;;;;;;;;6.70;99.90;;;;;;5058876;28;19908;-76
2022/11/29 05:42:57;;;;;;;;;;;6.60;99.90;;;;;;5076284;28;20445;-77
2022/11/29 05:45:30;;;;;;;;;;;6.60;99.90;;;;;;5075612;28;19915;-77
2022/11/29 05:48:03;;;;;;;;;;;6.60;99.90;;;;;;5076856;28;20015;-77
2022/11/29 05:50:41;;;;;;;;;;;6.60;99.90;;;;;;5076026;28;19908;-77
2022/11/29 05:53:12;;;;;;;;;;;6.50;99.90;;;;;;5076145;28;20285;-76
2022/11/29 05:55:58;;;;;;;;;;;6.50;99.90;;;;;;5075882;28;19948;-77
2022/11/29 05:58:26;;;;;;;;;;;6.40;99.90;;;;;;5057678;28;19966;-77
2022/11/29 06:01:00;;;;;;;;;;;6.40;99.90;;;;;;5076438;28;19909;-77
2022/11/29 06:03:35;;;;;;;;;;;6.30;99.90;;;;;;5075770;28;19908;-76
2022/11/29 06:06:38;;;;;;;;;;;6.30;99.90;;;;;;5075562;28;20309;-77
2022/11/29 06:09:22;;;;;;;;;;;6.10;99.90;;;;;;4994399;28;20349;-77
2022/11/29 06:11:49;;;;;;;;;;;6.00;99.90;;;;;;5069961;28;19942;-77
2022/11/29 06:29:24;;;;;;;;;;;5.90;99.90;;;;;;5193644;22;20552;-78
2022/11/29 06:32:10;;;;;;;;;;;5.80;99.90;;;;;;5014396;28;19926;-79
2022/11/29 06:34:53;;;;;;;;;;;5.70;99.90;;;;;;5014308;28;20417;-79
2022/11/29 06:37:22;;;;;;;;;;;5.70;99.90;;;;;;5014004;28;20359;-79
2022/11/29 06:39:47;;;;;;;;;;;5.60;99.90;;;;;;5014491;28;20288;-79
2022/11/29 06:42:13;;;;;;;;;;;5.60;99.90;;;;;;5013799;28;19971;-79
2022/11/29 06:44:39;;;;;;;;;;;5.60;99.90;;;;;;5013692;28;19917;-79
2022/11/29 06:47:05;;;;;;;;;;;5.60;99.90;;;;;;5015227;28;19920;-80
2022/11/29 06:49:54;;;;;;;;;;;5.60;99.90;;;;;;5012750;28;19917;-79
2022/11/29 06:52:41;;;;;;;;;;;5.60;99.90;;;;;;5007999;28;20247;-80
2022/11/29 06:55:19;;;;;;;;;;;5.60;99.90;;;;;;5013435;28;19909;-83
2022/11/29 06:57:59;;;;;;;;;;;5.50;99.90;;;;;;5013908;28;20044;-79
2022/11/29 07:00:27;;;;;;;;;;;5.50;99.90;;;;;;5013402;28;19909;-78
2022/11/29 07:02:58;;;;;;;;;;;5.50;99.90;;;;;;5013791;28;20371;-79
2022/11/29 07:05:30;;;;;;;;;;;5.50;99.90;;;;;;5012756;28;19932;-78
2022/11/29 07:07:59;;;;;;;;;;;5.40;99.90;;;;;;4995757;28;20347;-79
2022/11/29 07:10:25;;;;;;;;;;;5.40;99.90;;;;;;5013696;28;19909;-80
2022/11/29 07:12:51;;;;;;;;;;;5.40;99.90;;;;;;5012608;28;19924;-78
2022/11/29 07:15:18;;;;;;;;;;;5.40;99.90;;;;;;5012809;28;19910;-79
2022/11/29 07:17:56;;;;;;;;;;;5.40;99.90;;;;;;5013572;28;19917;-79
2022/11/29 07:20:25;;;;;;;;;;;5.40;99.90;;;;;;5011742;28;19917;-79
2022/11/29 07:22:56;;;;;;;;;;;5.40;99.90;;;;;;5011502;28;19913;-78
2022/11/29 07:25:38;;;;;;;;;;;5.50;99.90;;;;;;5013202;28;19917;-79
2022/11/29 07:28:30;;;;;;;;;;;5.50;99.90;;;;;;5013072;28;19913;-79
2022/11/29 07:31:19;;;;;;;;;;;5.50;99.90;;;;;;5011194;28;19922;-78
2022/11/29 07:33:51;;;;;;;;;;;5.50;99.90;;;;;;5007736;28;19916;-78
2022/11/29 07:36:33;;;;;;;;;;;5.50;99.90;;;;;;5012612;28;20012;-79
2022/11/29 07:39:18;;;;;;;;;;;5.60;99.90;;;;;;5012109;28;20009;-79
2022/11/29 07:41:49;;;;;;;;;;;5.60;99.90;;;;;;5012599;28;19909;-79
2022/11/29 07:44:14;;;;;;;;;;;5.70;99.90;;;;;;5012223;28;19996;-79
2022/11/29 07:46:40;;;;;;;;;;;5.60;99.90;;;;;;5013048;28;20323;-79
2022/11/29 07:49:08;;;;;;;;;;;5.70;99.90;;;;;;5012686;28;19914;-79
2022/11/29 07:51:33;;;;;;;;;;;5.70;99.90;;;;;;5012619;28;19910;-79
2022/11/29 07:53:59;;;;;;;;;;;5.70;99.90;;;;;;5011366;28;19916;-79
2022/11/29 07:56:25;;;;;;;;;;;5.80;99.90;;;;;;5012247;28;20313;-79
2022/11/29 07:58:50;;;;;;;;;;;5.70;99.90;;;;;;5012442;28;19909;-79
2022/11/29 08:01:16;;;;;;;;;;;5.70;99.90;;;;;;5010578;28;19964;-79
2022/11/29 08:03:41;;;;;;;;;;;5.80;99.90;;;;;;5011198;28;20311;-79
2022/11/29 08:06:07;;;;;;;;;;;5.80;99.90;;;;;;5012536;28;20219;-79
2022/11/29 08:08:32;;;;;;;;;;;5.90;99.90;;;;;;5011984;28;20148;-79
2022/11/29 08:10:58;;;;;;;;;;;5.90;99.90;;;;;;5014506;28;20259;-78
2022/11/29 08:13:23;;;;;;;;;;;5.90;99.90;;;;;;5016797;28;19909;-79
2022/11/29 08:15:49;;;;;;;;;;;5.90;99.90;;;;;;5017472;28;19910;-79
2022/11/29 08:18:15;;;;;;;;;;;5.90;99.90;;;;;;5016233;28;19917;-79
2022/11/29 08:20:40;;;;;;;;;;;6.00;99.90;;;;;;5014671;28;19910;-78
2022/11/29 08:23:07;;;;;;;;;;;6.10;99.90;;;;;;5012304;28;20283;-78
2022/11/29 08:25:33;;;;;;;;;;;6.10;99.90;;;;;;5013467;28;19912;-78
2022/11/29 08:28:00;;;;;;;;;;;6.10;99.90;;;;;;5015109;28;19941;-78
2022/11/29 08:30:26;;;;;;;;;;;6.20;99.90;;;;;;5011290;28;19998;-78
2022/11/29 08:32:52;;;;;;;;;;;6.20;99.90;;;;;;5012948;28;20055;-77
2022/11/29 08:35:18;;;;;;;;;;;6.30;99.90;;;;;;5013146;28;19983;-78
2022/11/29 08:37:44;;;;;;;;;;;6.30;99.90;;;;;;5010828;28;20290;-77
2022/11/29 08:40:09;;;;;;;;;;;6.30;99.90;;;;;;5011775;28;19961;-77
2022/11/29 08:42:35;;;;;;;;;;;6.30;99.90;;;;;;5011083;28;19936;-78
2022/11/29 08:45:01;;;;;;;;;;;6.40;99.90;;;;;;5011740;28;19959;-79
2022/11/29 08:47:35;;;;;;;;;;;6.40;99.90;;;;;;5010984;28;19913;-77
2022/11/29 08:50:02;;;;;;;;;;;6.40;99.90;;;;;;5011765;28;20336;-80
2022/11/29 08:55:13;;;;;;;;;;;6.40;99.90;;;;;;5011847;28;19916;-82
2022/11/29 08:57:38;;;;;;;;;;;6.50;99.90;;;;;;5012322;28;19913;-80
2022/11/29 09:00:05;;;;;;;;;;;6.50;99.90;;;;;;5012319;28;20000;-80
2022/11/29 09:02:30;;;;;;;;;;;6.60;99.90;;;;;;5012259;28;20275;-80
2022/11/29 09:04:56;;;;;;;;;;;6.60;99.90;;;;;;5012555;28;19914;-79
2022/11/29 09:07:21;;;;;;;;;;;6.60;99.90;;;;;;5011809;28;20026;-81
2022/11/29 09:09:47;;;;;;;;;;;6.70;99.90;;;;;;5012508;28;19957;-79
2022/11/29 09:12:13;;;;;;;;;;;6.70;99.90;;;;;;5012637;28;19909;-79
2022/11/29 09:14:38;;;;;;;;;;;6.70;99.90;;;;;;5011703;28;19925;-78
2022/11/29 09:17:04;;;;;;;;;;;6.70;99.90;;;;;;5012723;28;19913;-79
2022/11/29 09:19:29;;;;;;;;;;;6.80;99.90;;;;;;5011369;28;19932;-79
2022/11/29 09:21:55;;;;;;;;;;;6.80;99.90;;;;;;5012424;28;20358;-78
2022/11/29 09:24:20;;;;;;;;;;;6.80;99.90;;;;;;5011571;28;20282;-78
2022/11/29 09:26:47;;;;;;;;;;;6.80;99.90;;;;;;5009792;28;19924;-78
2022/11/29 09:29:14;;;;;;;;;;;6.90;99.90;;;;;;5012075;28;20280;-77
2022/11/29 09:31:39;;;;;;;;;;;6.90;99.90;;;;;;5012347;28;19910;-80
2022/11/29 09:34:05;;;;;;;;;;;6.90;99.90;;;;;;5012533;28;19917;-80
2022/11/29 09:36:31;;;;;;;;;;;6.90;99.90;;;;;;5011699;28;19916;-81
2022/11/29 09:38:57;;;;;;;;;;;6.90;99.90;;;;;;5012180;28;19960;-79
2022/11/29 09:41:41;;;;;;;;;;;7.00;99.90;;;;;;5011592;28;19948;-80
2022/11/29 09:44:15;;;;;;;;;;;7.00;99.90;;;;;;5011729;28;19928;-79
2022/11/29 09:46:50;;;;;;;;;;;7.00;99.90;;;;;;5011372;28;19924;-79
2022/11/29 09:49:21;;;;;;;;;;;7.00;99.90;;;;;;5011761;28;19910;-81
2022/11/29 09:52:13;;;;;;;;;;;7.10;99.90;;;;;;5011826;28;19972;-79
2022/11/29 09:54:54;;;;;;;;;;;7.20;99.90;;;;;;5007960;28;19920;-79
2022/11/29 09:57:22;;;;;;;;;;;7.20;99.90;;;;;;5011225;28;19910;-80
2022/11/29 09:59:53;;;;;;;;;;;7.30;99.90;;;;;;5011759;28;19910;-79
2022/11/29 10:02:27;;;;;;;;;;;7.40;99.90;;;;;;5011819;28;19913;-80
2022/11/29 10:04:55;;;;;;;;;;;7.40;99.90;;;;;;5012031;28;19916;-79
2022/11/29 10:07:29;;;;;;;;;;;7.50;99.90;;;;;;5011398;28;19996;-80
2022/11/29 10:10:00;;;;;;;;;;;7.50;99.90;;;;;;5012152;28;19910;-79
2022/11/29 10:12:58;;;;;;;;;;;7.50;99.90;;;;;;5011171;28;19909;-80
2022/11/29 10:15:26;;;;;;;;;;;7.60;99.90;;;;;;4988451;28;20275;-80
2022/11/29 10:17:57;;;;;;;;;;;7.60;99.90;;;;;;5011827;28;19916;-79
2022/11/29 10:20:24;;;;;;;;;;;7.70;99.90;;;;;;5010983;28;19920;-80
2022/11/29 10:22:56;;;;;;;;;;;7.70;99.90;;;;;;5011481;28;20208;-79
2022/11/29 10:25:41;;;;;;;;;;;7.70;99.90;;;;;;5012549;28;19948;-80
2022/11/29 10:28:11;;;;;;;;;;;7.80;99.90;;;;;;5007537;28;19918;-80
2022/11/29 10:30:38;;;;;;;;;;;7.80;99.90;;;;;;5014922;28;19925;-80
2022/11/29 10:33:09;;;;;;;;;;;7.80;99.90;;;;;;5015402;28;19909;-80
2022/11/29 10:35:34;;;;;;;;;;;7.90;99.90;;;;;;5013505;28;20022;-79
2022/11/29 10:38:00;;;;;;;;;;;8.00;99.90;;;;;;5014995;28;20454;-81
2022/11/29 10:40:32;;;;;;;;;;;8.00;99.90;;;;;;5014779;28;19916;-79
2022/11/29 10:42:58;;;;;;;;;;;8.00;99.90;;;;;;5012958;28;19917;-78
2022/11/29 10:45:37;;;;;;;;;;;8.10;99.90;;;;;;5013945;28;19909;-79
2022/11/29 10:48:16;;;;;;;;;;;8.10;99.90;;;;;;5014618;28;20263;-79
2022/11/29 10:50:43;;;;;;;;;;;8.20;99.90;;;;;;5013886;28;19910;-80
2022/11/29 10:53:10;;;;;;;;;;;8.20;99.90;;;;;;5014229;28;19913;-77
2022/11/29 10:55:40;;;;;;;;;;;8.20;99.90;;;;;;5014104;28;19910;-79
2022/11/29 10:58:18;;;;;;;;;;;8.30;99.90;;;;;;5014490;28;19925;-80
2022/11/29 11:00:50;;;;;;;;;;;8.30;99.90;;;;;;5014331;28;19937;-80
2022/11/29 11:03:23;;;;;;;;;;;8.40;99.90;;;;;;5014517;28;19909;-79
2022/11/29 11:06:00;;;;;;;;;;;8.40;99.90;;;;;;5013163;28;19921;-79
2022/11/29 11:08:26;;;;;;;;;;;8.50;99.90;;;;;;5013452;28;19971;-80
2022/11/29 11:10:54;;;;;;;;;;;8.50;99.90;;;;;;5013908;28;20004;-80
2022/11/29 11:13:21;;;;;;;;;;;8.50;99.90;;;;;;5012002;28;19914;-81
2022/11/29 11:15:46;;;;;;;;;;;8.50;99.90;;;;;;5013485;28;20008;-79
2022/11/29 11:18:22;;;;;;;;;;;8.60;99.90;;;;;;5013610;28;19956;-79
2022/11/29 11:20:52;;;;;;;;;;;8.60;99.90;;;;;;5013429;28;19917;-80
2022/11/29 11:23:38;;;;;;;;;;;8.70;99.90;;;;;;5013453;28;19955;-81
2022/11/29 11:26:05;;;;;;;;;;;8.70;99.90;;;;;;5010570;28;19928;-80
2022/11/29 11:28:43;;;;;;;;;;;8.70;99.90;;;;;;5012313;28;19976;-79
2022/11/29 11:31:09;;;;;;;;;;;8.70;99.90;;;;;;5013423;28;19918;-81
2022/11/29 11:33:42;;;;;;;;;;;8.70;99.90;;;;;;5013081;28;19948;-80
2022/11/29 11:36:08;;;;;;;;;;;8.70;99.90;;;;;;5012575;28;20002;-80
2022/11/29 11:38:48;;;;;;;;;;;8.70;99.90;;;;;;5012798;28;20374;-81
2022/11/29 11:41:15;;;;;;;;;;;8.70;99.90;;;;;;5013273;28;20007;-80
2022/11/29 11:43:41;;;;;;;;;;;8.80;99.90;;;;;;5012512;28;19989;-80
2022/11/29 11:46:07;;;;;;;;;;;8.80;99.90;;;;;;5013381;28;20017;-79
2022/11/29 11:48:33;;;;;;;;;;;8.70;99.90;;;;;;5011196;28;19944;-80
2022/11/29 11:50:59;;;;;;;;;;;8.80;99.90;;;;;;5013242;28;20349;-80
2022/11/29 11:53:35;;;;;;;;;;;8.80;99.90;;;;;;5012740;28;19917;-80
2022/11/29 11:56:03;;;;;;;;;;;8.80;99.90;;;;;;5012893;28;19913;-80
2022/11/29 11:58:31;;;;;;;;;;;8.90;99.90;;;;;;5012606;28;19929;-80
2022/11/29 12:00:56;;;;;;;;;;;8.90;99.90;;;;;;5012796;28;20298;-80
2022/11/29 12:03:40;;;;;;;;;;;8.90;99.90;;;;;;5012394;28;19951;-82
2022/11/29 12:06:06;;;;;;;;;;;8.90;99.90;;;;;;5012676;28;19918;-80
2022/11/29 12:08:32;;;;;;;;;;;8.80;99.90;;;;;;5012214;28;20404;-80
2022/11/29 12:11:01;;;;;;;;;;;8.80;99.90;;;;;;5012543;28;19910;-79
2022/11/29 12:13:29;;;;;;;;;;;8.80;99.90;;;;;;5012004;28;19916;-79
2022/11/29 12:15:56;;;;;;;;;;;8.80;99.90;;;;;;5012215;28;19909;-79
2022/11/29 12:18:28;;;;;;;;;;;8.90;99.90;;;;;;5011899;28;20327;-81
2022/11/29 12:21:08;;;;;;;;;;;8.80;99.90;;;;;;5010835;28;20014;-78
2022/11/29 12:23:49;;;;;;;;;;;8.80;99.90;;;;;;5011928;28;20308;-79
2022/11/29 12:26:28;;;;;;;;;;;8.80;99.90;;;;;;5011959;28;19960;-79
2022/11/29 12:28:54;;;;;;;;;;;8.80;99.90;;;;;;5011800;28;20264;-79
2022/11/29 12:31:32;;;;;;;;;;;8.80;99.90;;;;;;5012167;28;19936;-78
2022/11/29 12:33:57;;;;;;;;;;;8.80;99.90;;;;;;5012480;28;19909;-79
2022/11/29 12:36:23;;;;;;;;;;;8.80;99.90;;;;;;5011340;28;19928;-81
2022/11/29 12:38:52;;;;;;;;;;;8.80;99.90;;;;;;5012182;28;19913;-79
2022/11/29 12:41:20;;;;;;;;;;;8.80;99.90;;;;;;5011681;28;19909;-79
2022/11/29 12:44:06;;;;;;;;;;;8.80;99.90;;;;;;5011805;28;19909;-79
2022/11/29 12:46:32;;;;;;;;;;;8.80;99.90;;;;;;4990018;28;19929;-78
2022/11/29 12:48:57;;;;;;;;;;;8.80;99.90;;;;;;5011289;28;19932;-79
2022/11/29 12:51:34;;;;;;;;;;;8.80;99.90;;;;;;5011057;28;19956;-80
2022/11/29 12:54:19;;;;;;;;;;;8.70;99.90;;;;;;5011923;28;19910;-79
2022/11/29 12:56:44;;;;;;;;;;;8.70;99.90;;;;;;5011666;28;20389;-79
2022/11/29 12:59:16;;;;;;;;;;;8.70;99.90;;;;;;5011632;28;19909;-79
2022/11/29 13:02:07;;;;;;;;;;;8.70;99.90;;;;;;5011478;28;19997;-79
2022/11/29 13:04:37;;;;;;;;;;;8.60;99.90;;;;;;5011313;28;19935;-79
2022/11/29 13:07:03;;;;;;;;;;;8.60;99.90;;;;;;5011706;28;19925;-79
2022/11/29 13:10:05;;;;;;;;;;;8.60;99.90;;;;;;5010686;28;20285;-79
2022/11/29 13:12:38;;;;;;;;;;;8.60;99.90;;;;;;4969539;28;19911;-79
2022/11/29 13:15:09;;;;;;;;;;;8.60;99.90;;;;;;5004756;28;20066;-79
2022/11/29 13:17:48;;;;;;;;;;;8.60;99.90;;;;;;5011132;28;19920;-79
2022/11/29 13:20:14;;;;;;;;;;;8.60;99.90;;;;;;5011430;28;20011;-79
2022/11/29 13:22:48;;;;;;;;;;;8.60;99.90;;;;;;5010992;28;19949;-80
2022/11/29 13:25:20;;;;;;;;;;;8.60;99.90;;;;;;5011329;28;19909;-80
2022/11/29 13:28:04;;;;;;;;;;;8.60;99.90;;;;;;5011173;28;19913;-80
2022/11/29 13:30:32;;;;;;;;;;;8.60;99.90;;;;;;5011184;28;19921;-80
2022/11/29 13:33:01;;;;;;;;;;;8.70;99.90;;;;;;5011781;28;19914;-79
2022/11/29 13:35:36;;;;;;;;;;;8.70;99.90;;;;;;5011115;28;20251;-80
2022/11/29 13:38:09;;;;;;;;;;;8.70;99.90;;;;;;5011337;28;19987;-79
2022/11/29 13:40:50;;;;;;;;;;;8.70;99.90;;;;;;5010920;28;19925;-79
2022/11/29 13:43:18;;;;;;;;;;;8.70;99.90;;;;;;5011318;28;19909;-79
2022/11/29 13:45:44;;;;;;;;;;;8.70;99.90;;;;;;5010803;28;19905;-79
2022/11/29 13:48:28;;;;;;;;;;;8.70;99.90;;;;;;5011217;28;19910;-79
2022/11/29 13:50:54;;;;;;;;;;;8.70;99.90;;;;;;5011061;28;19916;-80
2022/11/29 13:53:21;;;;;;;;;;;8.70;99.90;;;;;;5026284;28;19903;-79
2022/11/29 13:55:48;;;;;;;;;;;8.70;99.90;;;;;;5034357;28;19925;-79
2022/11/29 13:58:14;;;;;;;;;;;8.70;99.90;;;;;;5032852;28;19901;-81
2022/11/29 14:00:42;;;;;;;;;;;8.70;99.90;;;;;;5037521;28;19901;-78
2022/11/29 14:03:17;;;;;;;;;;;8.70;99.90;;;;;;5038050;28;20019;-79
2022/11/29 14:05:47;;;;;;;;;;;8.70;99.90;;;;;;5037982;28;19994;-79
2022/11/29 14:08:25;;;;;;;;;;;8.70;99.90;;;;;;5038156;28;19921;-79
2022/11/29 14:10:53;;;;;;;;;;;8.70;99.90;;;;;;5020661;28;19909;-79
2022/11/29 14:13:21;;;;;;;;;;;8.80;99.90;;;;;;5014643;28;19913;-79
2022/11/29 14:15:53;;;;;;;;;;;8.70;99.90;;;;;;5014166;28;19917;-79
2022/11/29 14:18:51;;;;;;;;;;;8.70;99.90;;;;;;5014314;28;19913;-79
2022/11/29 14:21:16;;;;;;;;;;;8.80;99.90;;;;;;4991299;28;19920;-79
2022/11/29 14:23:42;;;;;;;;;;;8.80;99.90;;;;;;5014109;28;19909;-79
2022/11/29 14:26:08;;;;;;;;;;;8.80;99.90;;;;;;5014274;28;19917;-79
2022/11/29 14:28:34;;;;;;;;;;;8.80;99.90;;;;;;5013520;28;19952;-79
2022/11/29 14:31:03;;;;;;;;;;;8.80;99.90;;;;;;5014053;28;19920;-79
2022/11/29 14:33:36;;;;;;;;;;;8.80;99.90;;;;;;5013614;28;19913;-80
2022/11/29 14:36:13;;;;;;;;;;;8.80;99.90;;;;;;5014159;28;19917;-79
2022/11/29 14:38:39;;;;;;;;;;;8.70;99.90;;;;;;5012520;28;19913;-79
2022/11/29 14:41:26;;;;;;;;;;;8.70;99.90;;;;;;5014526;28;19916;-78
2022/11/29 14:44:03;;;;;;;;;;;8.70;99.90;;;;;;5014268;28;19909;-79
2022/11/29 14:46:30;;;;;;;;;;;8.60;99.90;;;;;;5013000;28;20388;-81
2022/11/29 14:48:56;;;;;;;;;;;8.60;99.90;;;;;;5014269;28;20379;-79
2022/11/29 14:51:22;;;;;;;;;;;8.50;99.90;;;;;;5014221;28;19910;-80
2022/11/29 14:53:59;;;;;;;;;;;8.50;99.90;;;;;;5013368;28;19910;-78
2022/11/29 14:56:28;;;;;;;;;;;8.50;99.90;;;;;;5013306;28;20028;-81
2022/11/29 14:59:12;;;;;;;;;;;8.40;99.90;;;;;;5013665;28;19924;-79
2022/11/29 15:01:42;;;;;;;;;;;8.40;99.90;;;;;;5013107;28;19909;-78
2022/11/29 15:04:08;;;;;;;;;;;8.40;99.90;;;;;;5014010;28;20004;-78
2022/11/29 15:06:35;;;;;;;;;;;8.40;99.90;;;;;;5013126;28;20310;-79
2022/11/29 15:09:06;;;;;;;;;;;8.40;99.90;;;;;;5013472;28;19913;-79
2022/11/29 15:11:52;;;;;;;;;;;8.30;99.90;;;;;;5012400;28;20266;-79
2022/11/29 15:14:22;;;;;;;;;;;8.30;99.90;;;;;;5012551;28;20326;-79